sensor_id;sensor_type;location;lat;lon;timestamp;P1;durP1;ratioP1;P2;durP2;ratioP2
65753;SDS011;69207;47.502;18.940;2023-08-20T00:00:47;17.05;;;9.93;;
65753;SDS011;69207;47.502;18.940;2023-08-20T00:01:50;11.90;;;10.15;;
65753;SDS011;69207;47.502;18.940;2023-08-20T00:03:03;16.27;;;9.68;;
65753;SDS011;69207;47.502;18.940;2023-08-20T00:04:14;15.73;;;8.85;;
65753;SDS011;69207;47.502;18.940;2023-08-20T00:05:18;16.42;;;9.73;;
65753;SDS011;69207;47.502;18.940;2023-08-20T00:06:22;12.85;;;9.20;;
65753;SDS011;69207;47.502;18.940;2023-08-20T00:07:25;11.55;;;9.30;;
65753;SDS011;69207;47.502;18.940;2023-08-20T00:08:29;10.93;;;9.00;;
65753;SDS011;69207;47.502;18.940;2023-08-20T00:09:32;14.57;;;9.65;;
65753;SDS011;69207;47.502;18.940;2023-08-20T00:10:35;10.65;;;8.95;;
65753;SDS011;69207;47.502;18.940;2023-08-20T00:11:38;11.90;;;9.70;;
65753;SDS011;69207;47.502;18.940;2023-08-20T00:12:41;14.93;;;8.88;;
65753;SDS011;69207;47.502;18.940;2023-08-20T00:13:44;14.05;;;9.60;;
65753;SDS011;69207;47.502;18.940;2023-08-20T00:14:51;12.63;;;9.40;;
65753;SDS011;69207;47.502;18.940;2023-08-20T00:16:07;15.38;;;9.27;;
65753;SDS011;69207;47.502;18.940;2023-08-20T00:17:11;12.37;;;9.82;;
65753;SDS011;69207;47.502;18.940;2023-08-20T00:18:14;14.25;;;8.82;;
65753;SDS011;69207;47.502;18.940;2023-08-20T00:19:18;12.45;;;9.93;;
65753;SDS011;69207;47.502;18.940;2023-08-20T00:20:21;15.80;;;8.77;;
65753;SDS011;69207;47.502;18.940;2023-08-20T00:21:25;12.07;;;9.38;;
65753;SDS011;69207;47.502;18.940;2023-08-20T00:22:30;12.68;;;9.32;;
65753;SDS011;69207;47.502;18.940;2023-08-20T00:23:34;16.05;;;9.48;;
65753;SDS011;69207;47.502;18.940;2023-08-20T00:24:38;13.82;;;9.55;;
65753;SDS011;69207;47.502;18.940;2023-08-20T00:25:43;16.70;;;9.93;;
65753;SDS011;69207;47.502;18.940;2023-08-20T00:26:46;15.18;;;9.30;;
65753;SDS011;69207;47.502;18.940;2023-08-20T00:27:49;11.25;;;9.30;;
65753;SDS011;69207;47.502;18.940;2023-08-20T00:28:52;11.43;;;9.02;;
65753;SDS011;69207;47.502;18.940;2023-08-20T00:29:55;15.85;;;9.43;;
65753;SDS011;69207;47.502;18.940;2023-08-20T00:30:58;13.62;;;9.75;;
65753;SDS011;69207;47.502;18.940;2023-08-20T00:32:02;11.25;;;9.45;;
65753;SDS011;69207;47.502;18.940;2023-08-20T00:33:05;12.13;;;9.32;;
65753;SDS011;69207;47.502;18.940;2023-08-20T00:34:08;12.48;;;9.23;;
65753;SDS011;69207;47.502;18.940;2023-08-20T00:35:11;12.88;;;10.35;;
65753;SDS011;69207;47.502;18.940;2023-08-20T00:36:14;12.13;;;9.00;;
65753;SDS011;69207;47.502;18.940;2023-08-20T00:37:17;12.30;;;8.90;;
65753;SDS011;69207;47.502;18.940;2023-08-20T00:38:20;12.40;;;9.13;;
65753;SDS011;69207;47.502;18.940;2023-08-20T00:39:23;12.88;;;10.00;;
65753;SDS011;69207;47.502;18.940;2023-08-20T00:40:26;12.05;;;9.38;;
65753;SDS011;69207;47.502;18.940;2023-08-20T00:41:29;11.38;;;9.15;;
65753;SDS011;69207;47.502;18.940;2023-08-20T00:42:32;11.30;;;9.15;;
65753;SDS011;69207;47.502;18.940;2023-08-20T00:43:35;15.55;;;9.52;;
65753;SDS011;69207;47.502;18.940;2023-08-20T00:44:38;14.10;;;9.65;;
65753;SDS011;69207;47.502;18.940;2023-08-20T00:45:43;9.95;;;8.95;;
65753;SDS011;69207;47.502;18.940;2023-08-20T00:46:46;12.85;;;9.00;;
65753;SDS011;69207;47.502;18.940;2023-08-20T00:47:50;12.85;;;9.50;;
65753;SDS011;69207;47.502;18.940;2023-08-20T00:48:54;13.50;;;9.57;;
65753;SDS011;69207;47.502;18.940;2023-08-20T00:49:57;10.95;;;9.50;;
65753;SDS011;69207;47.502;18.940;2023-08-20T00:51:01;12.55;;;8.95;;
65753;SDS011;69207;47.502;18.940;2023-08-20T00:52:05;11.73;;;9.65;;
65753;SDS011;69207;47.502;18.940;2023-08-20T00:53:11;11.32;;;9.55;;
65753;SDS011;69207;47.502;18.940;2023-08-20T00:54:16;12.85;;;8.93;;
65753;SDS011;69207;47.502;18.940;2023-08-20T00:55:19;12.75;;;9.23;;
65753;SDS011;69207;47.502;18.940;2023-08-20T00:56:22;12.27;;;9.60;;
65753;SDS011;69207;47.502;18.940;2023-08-20T00:57:26;13.30;;;10.00;;
65753;SDS011;69207;47.502;18.940;2023-08-20T00:58:29;12.25;;;9.13;;
65753;SDS011;69207;47.502;18.940;2023-08-20T00:59:32;15.38;;;9.82;;
65753;SDS011;69207;47.502;18.940;2023-08-20T01:00:36;14.00;;;9.32;;
65753;SDS011;69207;47.502;18.940;2023-08-20T01:01:39;18.77;;;9.02;;
65753;SDS011;69207;47.502;18.940;2023-08-20T01:02:41;15.55;;;8.95;;
65753;SDS011;69207;47.502;18.940;2023-08-20T01:03:48;20.85;;;9.07;;
65753;SDS011;69207;47.502;18.940;2023-08-20T01:04:51;12.50;;;8.95;;
65753;SDS011;69207;47.502;18.940;2023-08-20T01:06:01;11.12;;;8.27;;
65753;SDS011;69207;47.502;18.940;2023-08-20T01:08:08;14.65;;;9.90;;
65753;SDS011;69207;47.502;18.940;2023-08-20T01:10:46;10.85;;;9.02;;
65753;SDS011;69207;47.502;18.940;2023-08-20T01:12:01;16.83;;;9.30;;
65753;SDS011;69207;47.502;18.940;2023-08-20T01:13:06;11.93;;;9.48;;
65753;SDS011;69207;47.502;18.940;2023-08-20T01:14:16;13.00;;;10.00;;
65753;SDS011;69207;47.502;18.940;2023-08-20T01:15:20;13.57;;;10.13;;
65753;SDS011;69207;47.502;18.940;2023-08-20T01:16:23;12.63;;;9.77;;
65753;SDS011;69207;47.502;18.940;2023-08-20T01:17:26;12.30;;;10.05;;
65753;SDS011;69207;47.502;18.940;2023-08-20T01:18:29;14.40;;;9.77;;
65753;SDS011;69207;47.502;18.940;2023-08-20T01:19:32;17.00;;;9.57;;
65753;SDS011;69207;47.502;18.940;2023-08-20T01:20:39;14.63;;;10.10;;
65753;SDS011;69207;47.502;18.940;2023-08-20T01:21:55;17.48;;;10.30;;
65753;SDS011;69207;47.502;18.940;2023-08-20T01:24:22;11.73;;;10.07;;
65753;SDS011;69207;47.502;18.940;2023-08-20T01:25:49;17.17;;;9.80;;
65753;SDS011;69207;47.502;18.940;2023-08-20T01:28:38;15.27;;;9.10;;
65753;SDS011;69207;47.502;18.940;2023-08-20T01:29:42;10.23;;;9.23;;
65753;SDS011;69207;47.502;18.940;2023-08-20T01:30:46;12.77;;;9.15;;
65753;SDS011;69207;47.502;18.940;2023-08-20T01:31:49;15.23;;;9.85;;
65753;SDS011;69207;47.502;18.940;2023-08-20T01:32:54;13.25;;;9.25;;
65753;SDS011;69207;47.502;18.940;2023-08-20T01:33:58;10.75;;;9.32;;
65753;SDS011;69207;47.502;18.940;2023-08-20T01:35:02;12.98;;;9.77;;
65753;SDS011;69207;47.502;18.940;2023-08-20T01:36:06;16.12;;;9.60;;
65753;SDS011;69207;47.502;18.940;2023-08-20T01:37:12;11.12;;;9.00;;
65753;SDS011;69207;47.502;18.940;2023-08-20T01:38:15;12.55;;;10.23;;
65753;SDS011;69207;47.502;18.940;2023-08-20T01:39:18;12.82;;;9.15;;
65753;SDS011;69207;47.502;18.940;2023-08-20T01:40:21;14.48;;;9.98;;
65753;SDS011;69207;47.502;18.940;2023-08-20T01:41:24;14.50;;;10.13;;
65753;SDS011;69207;47.502;18.940;2023-08-20T01:42:27;13.23;;;9.95;;
65753;SDS011;69207;47.502;18.940;2023-08-20T01:43:30;13.62;;;10.10;;
65753;SDS011;69207;47.502;18.940;2023-08-20T01:44:33;13.62;;;9.95;;
65753;SDS011;69207;47.502;18.940;2023-08-20T01:45:36;14.02;;;10.18;;
65753;SDS011;69207;47.502;18.940;2023-08-20T01:46:39;12.57;;;9.82;;
65753;SDS011;69207;47.502;18.940;2023-08-20T01:47:42;11.45;;;9.95;;
65753;SDS011;69207;47.502;18.940;2023-08-20T01:48:45;14.10;;;10.52;;
65753;SDS011;69207;47.502;18.940;2023-08-20T01:49:48;12.95;;;10.40;;
65753;SDS011;69207;47.502;18.940;2023-08-20T01:50:51;14.65;;;10.07;;
65753;SDS011;69207;47.502;18.940;2023-08-20T01:51:54;15.80;;;9.90;;
65753;SDS011;69207;47.502;18.940;2023-08-20T01:52:57;14.98;;;9.57;;
65753;SDS011;69207;47.502;18.940;2023-08-20T01:54:00;13.68;;;9.60;;
65753;SDS011;69207;47.502;18.940;2023-08-20T01:55:04;11.73;;;10.00;;
65753;SDS011;69207;47.502;18.940;2023-08-20T01:56:11;13.62;;;9.68;;
65753;SDS011;69207;47.502;18.940;2023-08-20T01:57:15;13.77;;;9.57;;
65753;SDS011;69207;47.502;18.940;2023-08-20T01:58:18;12.13;;;9.98;;
65753;SDS011;69207;47.502;18.940;2023-08-20T01:59:21;13.77;;;9.70;;
65753;SDS011;69207;47.502;18.940;2023-08-20T02:00:26;11.20;;;9.45;;
65753;SDS011;69207;47.502;18.940;2023-08-20T02:01:30;14.43;;;9.80;;
65753;SDS011;69207;47.502;18.940;2023-08-20T02:02:33;19.00;;;10.30;;
65753;SDS011;69207;47.502;18.940;2023-08-20T02:03:36;10.63;;;8.82;;
65753;SDS011;69207;47.502;18.940;2023-08-20T02:04:42;13.13;;;10.23;;
65753;SDS011;69207;47.502;18.940;2023-08-20T02:05:45;12.65;;;9.38;;
65753;SDS011;69207;47.502;18.940;2023-08-20T02:06:48;13.68;;;9.80;;
65753;SDS011;69207;47.502;18.940;2023-08-20T02:07:51;13.30;;;9.50;;
65753;SDS011;69207;47.502;18.940;2023-08-20T02:08:54;16.02;;;10.45;;
65753;SDS011;69207;47.502;18.940;2023-08-20T02:09:57;18.08;;;9.52;;
65753;SDS011;69207;47.502;18.940;2023-08-20T02:11:04;11.43;;;9.82;;
65753;SDS011;69207;47.502;18.940;2023-08-20T02:12:07;14.10;;;9.70;;
65753;SDS011;69207;47.502;18.940;2023-08-20T02:13:10;12.07;;;9.68;;
65753;SDS011;69207;47.502;18.940;2023-08-20T02:14:13;18.90;;;9.77;;
65753;SDS011;69207;47.502;18.940;2023-08-20T02:15:16;15.68;;;9.93;;
65753;SDS011;69207;47.502;18.940;2023-08-20T02:16:19;12.27;;;9.68;;
65753;SDS011;69207;47.502;18.940;2023-08-20T02:17:22;14.10;;;9.88;;
65753;SDS011;69207;47.502;18.940;2023-08-20T02:18:26;11.82;;;9.80;;
65753;SDS011;69207;47.502;18.940;2023-08-20T02:19:29;11.65;;;9.30;;
65753;SDS011;69207;47.502;18.940;2023-08-20T02:20:32;10.98;;;9.32;;
65753;SDS011;69207;47.502;18.940;2023-08-20T02:21:35;12.75;;;9.48;;
65753;SDS011;69207;47.502;18.940;2023-08-20T02:22:38;11.90;;;9.10;;
65753;SDS011;69207;47.502;18.940;2023-08-20T02:23:41;10.48;;;9.25;;
65753;SDS011;69207;47.502;18.940;2023-08-20T02:24:43;15.27;;;9.35;;
65753;SDS011;69207;47.502;18.940;2023-08-20T02:25:46;15.75;;;10.27;;
65753;SDS011;69207;47.502;18.940;2023-08-20T02:26:50;15.90;;;9.50;;
65753;SDS011;69207;47.502;18.940;2023-08-20T02:27:53;10.70;;;9.05;;
65753;SDS011;69207;47.502;18.940;2023-08-20T02:28:56;12.73;;;9.85;;
65753;SDS011;69207;47.502;18.940;2023-08-20T02:29:59;12.68;;;9.40;;
65753;SDS011;69207;47.502;18.940;2023-08-20T02:31:03;11.68;;;9.98;;
65753;SDS011;69207;47.502;18.940;2023-08-20T02:32:07;13.35;;;9.90;;
65753;SDS011;69207;47.502;18.940;2023-08-20T02:33:10;12.57;;;9.38;;
65753;SDS011;69207;47.502;18.940;2023-08-20T02:34:14;11.25;;;8.95;;
65753;SDS011;69207;47.502;18.940;2023-08-20T02:35:17;14.35;;;9.43;;
65753;SDS011;69207;47.502;18.940;2023-08-20T02:36:19;13.15;;;9.80;;
65753;SDS011;69207;47.502;18.940;2023-08-20T02:37:23;13.00;;;9.32;;
65753;SDS011;69207;47.502;18.940;2023-08-20T02:38:26;15.27;;;9.75;;
65753;SDS011;69207;47.502;18.940;2023-08-20T02:39:29;12.43;;;8.90;;
65753;SDS011;69207;47.502;18.940;2023-08-20T02:40:38;12.05;;;9.63;;
65753;SDS011;69207;47.502;18.940;2023-08-20T02:41:42;13.32;;;8.75;;
65753;SDS011;69207;47.502;18.940;2023-08-20T02:42:46;11.63;;;9.38;;
65753;SDS011;69207;47.502;18.940;2023-08-20T02:43:49;12.95;;;9.07;;
65753;SDS011;69207;47.502;18.940;2023-08-20T02:44:51;11.77;;;9.07;;
65753;SDS011;69207;47.502;18.940;2023-08-20T02:45:54;11.70;;;9.00;;
65753;SDS011;69207;47.502;18.940;2023-08-20T02:46:57;15.30;;;10.05;;
65753;SDS011;69207;47.502;18.940;2023-08-20T02:48:00;15.68;;;8.98;;
65753;SDS011;69207;47.502;18.940;2023-08-20T02:49:03;13.70;;;8.23;;
65753;SDS011;69207;47.502;18.940;2023-08-20T02:50:06;14.38;;;9.52;;
65753;SDS011;69207;47.502;18.940;2023-08-20T02:51:10;13.95;;;9.05;;
65753;SDS011;69207;47.502;18.940;2023-08-20T02:52:13;16.85;;;9.90;;
65753;SDS011;69207;47.502;18.940;2023-08-20T02:53:16;10.30;;;9.02;;
65753;SDS011;69207;47.502;18.940;2023-08-20T02:54:18;17.40;;;8.73;;
65753;SDS011;69207;47.502;18.940;2023-08-20T02:55:21;12.05;;;8.65;;
65753;SDS011;69207;47.502;18.940;2023-08-20T02:56:24;17.67;;;8.98;;
65753;SDS011;69207;47.502;18.940;2023-08-20T02:57:27;13.15;;;9.25;;
65753;SDS011;69207;47.502;18.940;2023-08-20T02:58:30;15.82;;;9.35;;
65753;SDS011;69207;47.502;18.940;2023-08-20T02:59:33;17.02;;;9.32;;
65753;SDS011;69207;47.502;18.940;2023-08-20T03:00:36;19.65;;;9.00;;
65753;SDS011;69207;47.502;18.940;2023-08-20T03:01:39;12.30;;;9.38;;
65753;SDS011;69207;47.502;18.940;2023-08-20T03:02:42;15.18;;;9.15;;
65753;SDS011;69207;47.502;18.940;2023-08-20T03:03:45;15.02;;;9.27;;
65753;SDS011;69207;47.502;18.940;2023-08-20T03:04:48;14.68;;;9.30;;
65753;SDS011;69207;47.502;18.940;2023-08-20T03:05:51;13.13;;;8.82;;
65753;SDS011;69207;47.502;18.940;2023-08-20T03:06:54;11.32;;;8.90;;
65753;SDS011;69207;47.502;18.940;2023-08-20T03:07:57;13.57;;;8.88;;
65753;SDS011;69207;47.502;18.940;2023-08-20T03:09:00;15.82;;;8.55;;
65753;SDS011;69207;47.502;18.940;2023-08-20T03:10:03;11.25;;;8.40;;
65753;SDS011;69207;47.502;18.940;2023-08-20T03:11:06;14.73;;;8.50;;
65753;SDS011;69207;47.502;18.940;2023-08-20T03:12:09;11.00;;;8.20;;
65753;SDS011;69207;47.502;18.940;2023-08-20T03:13:13;10.23;;;8.50;;
65753;SDS011;69207;47.502;18.940;2023-08-20T03:14:16;17.60;;;9.55;;
65753;SDS011;69207;47.502;18.940;2023-08-20T03:15:19;12.45;;;8.85;;
65753;SDS011;69207;47.502;18.940;2023-08-20T03:16:22;12.37;;;8.63;;
65753;SDS011;69207;47.502;18.940;2023-08-20T03:17:25;11.35;;;8.70;;
65753;SDS011;69207;47.502;18.940;2023-08-20T03:18:29;8.90;;;7.80;;
65753;SDS011;69207;47.502;18.940;2023-08-20T03:19:33;13.00;;;8.27;;
65753;SDS011;69207;47.502;18.940;2023-08-20T03:20:38;13.38;;;8.13;;
65753;SDS011;69207;47.502;18.940;2023-08-20T03:21:40;10.32;;;7.95;;
65753;SDS011;69207;47.502;18.940;2023-08-20T03:22:44;13.90;;;8.70;;
65753;SDS011;69207;47.502;18.940;2023-08-20T03:23:47;12.43;;;8.27;;
65753;SDS011;69207;47.502;18.940;2023-08-20T03:24:50;9.48;;;8.07;;
65753;SDS011;69207;47.502;18.940;2023-08-20T03:25:57;13.32;;;8.90;;
65753;SDS011;69207;47.502;18.940;2023-08-20T03:27:01;13.25;;;8.02;;
65753;SDS011;69207;47.502;18.940;2023-08-20T03:28:05;11.90;;;9.15;;
65753;SDS011;69207;47.502;18.940;2023-08-20T03:29:08;12.85;;;8.68;;
65753;SDS011;69207;47.502;18.940;2023-08-20T03:30:11;11.65;;;8.32;;
65753;SDS011;69207;47.502;18.940;2023-08-20T03:31:14;13.45;;;8.23;;
65753;SDS011;69207;47.502;18.940;2023-08-20T03:32:18;11.05;;;8.48;;
65753;SDS011;69207;47.502;18.940;2023-08-20T03:33:21;14.13;;;8.68;;
65753;SDS011;69207;47.502;18.940;2023-08-20T03:34:24;10.88;;;7.80;;
65753;SDS011;69207;47.502;18.940;2023-08-20T03:35:26;10.63;;;8.35;;
65753;SDS011;69207;47.502;18.940;2023-08-20T03:36:30;12.88;;;8.52;;
65753;SDS011;69207;47.502;18.940;2023-08-20T03:37:32;10.57;;;7.75;;
65753;SDS011;69207;47.502;18.940;2023-08-20T03:38:36;11.70;;;8.55;;
65753;SDS011;69207;47.502;18.940;2023-08-20T03:39:39;9.77;;;8.02;;
65753;SDS011;69207;47.502;18.940;2023-08-20T03:40:42;13.43;;;7.90;;
65753;SDS011;69207;47.502;18.940;2023-08-20T03:41:44;12.75;;;8.68;;
65753;SDS011;69207;47.502;18.940;2023-08-20T03:42:47;11.25;;;8.23;;
65753;SDS011;69207;47.502;18.940;2023-08-20T03:43:50;13.82;;;8.27;;
65753;SDS011;69207;47.502;18.940;2023-08-20T03:44:53;11.00;;;8.52;;
65753;SDS011;69207;47.502;18.940;2023-08-20T03:45:56;13.15;;;8.35;;
65753;SDS011;69207;47.502;18.940;2023-08-20T03:46:59;10.68;;;8.05;;
65753;SDS011;69207;47.502;18.940;2023-08-20T03:48:02;14.27;;;8.02;;
65753;SDS011;69207;47.502;18.940;2023-08-20T03:49:05;11.77;;;7.87;;
65753;SDS011;69207;47.502;18.940;2023-08-20T03:50:08;11.43;;;7.57;;
65753;SDS011;69207;47.502;18.940;2023-08-20T03:51:11;11.10;;;8.05;;
65753;SDS011;69207;47.502;18.940;2023-08-20T03:52:15;11.15;;;8.32;;
65753;SDS011;69207;47.502;18.940;2023-08-20T03:53:18;9.38;;;7.78;;
65753;SDS011;69207;47.502;18.940;2023-08-20T03:54:21;12.23;;;8.15;;
65753;SDS011;69207;47.502;18.940;2023-08-20T03:55:24;12.52;;;7.22;;
65753;SDS011;69207;47.502;18.940;2023-08-20T03:56:27;11.23;;;7.75;;
65753;SDS011;69207;47.502;18.940;2023-08-20T03:57:30;14.45;;;8.00;;
65753;SDS011;69207;47.502;18.940;2023-08-20T03:58:33;10.10;;;7.53;;
65753;SDS011;69207;47.502;18.940;2023-08-20T03:59:36;22.70;;;8.48;;
65753;SDS011;69207;47.502;18.940;2023-08-20T04:00:39;10.90;;;8.15;;
65753;SDS011;69207;47.502;18.940;2023-08-20T04:01:41;14.52;;;8.20;;
65753;SDS011;69207;47.502;18.940;2023-08-20T04:02:44;11.50;;;7.75;;
65753;SDS011;69207;47.502;18.940;2023-08-20T04:03:47;16.10;;;8.27;;
65753;SDS011;69207;47.502;18.940;2023-08-20T04:04:51;8.75;;;7.85;;
65753;SDS011;69207;47.502;18.940;2023-08-20T04:05:53;10.60;;;7.35;;
65753;SDS011;69207;47.502;18.940;2023-08-20T04:06:56;9.70;;;7.32;;
65753;SDS011;69207;47.502;18.940;2023-08-20T04:07:59;9.15;;;7.65;;
65753;SDS011;69207;47.502;18.940;2023-08-20T04:09:02;18.08;;;7.97;;
65753;SDS011;69207;47.502;18.940;2023-08-20T04:10:07;18.25;;;9.25;;
65753;SDS011;69207;47.502;18.940;2023-08-20T04:11:11;10.65;;;8.05;;
65753;SDS011;69207;47.502;18.940;2023-08-20T04:12:14;8.70;;;7.30;;
65753;SDS011;69207;47.502;18.940;2023-08-20T04:13:16;10.70;;;7.50;;
65753;SDS011;69207;47.502;18.940;2023-08-20T04:14:19;9.07;;;6.95;;
65753;SDS011;69207;47.502;18.940;2023-08-20T04:15:22;8.68;;;7.22;;
65753;SDS011;69207;47.502;18.940;2023-08-20T04:16:25;10.93;;;7.07;;
65753;SDS011;69207;47.502;18.940;2023-08-20T04:17:28;8.82;;;7.35;;
65753;SDS011;69207;47.502;18.940;2023-08-20T04:18:31;8.23;;;7.00;;
65753;SDS011;69207;47.502;18.940;2023-08-20T04:19:34;14.85;;;7.85;;
65753;SDS011;69207;47.502;18.940;2023-08-20T04:20:37;8.77;;;6.87;;
65753;SDS011;69207;47.502;18.940;2023-08-20T04:21:40;9.00;;;7.10;;
65753;SDS011;69207;47.502;18.940;2023-08-20T04:22:43;13.85;;;6.85;;
65753;SDS011;69207;47.502;18.940;2023-08-20T04:23:46;8.15;;;6.47;;
65753;SDS011;69207;47.502;18.940;2023-08-20T04:24:49;10.35;;;6.50;;
65753;SDS011;69207;47.502;18.940;2023-08-20T04:25:52;7.85;;;6.43;;
65753;SDS011;69207;47.502;18.940;2023-08-20T04:26:55;10.25;;;6.93;;
65753;SDS011;69207;47.502;18.940;2023-08-20T04:27:59;9.77;;;6.65;;
65753;SDS011;69207;47.502;18.940;2023-08-20T04:29:02;9.48;;;6.87;;
65753;SDS011;69207;47.502;18.940;2023-08-20T04:30:05;8.70;;;6.43;;
65753;SDS011;69207;47.502;18.940;2023-08-20T04:31:09;8.88;;;6.50;;
65753;SDS011;69207;47.502;18.940;2023-08-20T04:32:12;9.75;;;6.82;;
65753;SDS011;69207;47.502;18.940;2023-08-20T04:33:15;7.72;;;6.93;;
65753;SDS011;69207;47.502;18.940;2023-08-20T04:34:18;7.85;;;6.57;;
65753;SDS011;69207;47.502;18.940;2023-08-20T04:35:21;10.38;;;7.20;;
65753;SDS011;69207;47.502;18.940;2023-08-20T04:36:24;6.90;;;6.15;;
65753;SDS011;69207;47.502;18.940;2023-08-20T04:37:27;10.00;;;6.57;;
65753;SDS011;69207;47.502;18.940;2023-08-20T04:38:30;7.32;;;6.47;;
65753;SDS011;69207;47.502;18.940;2023-08-20T04:39:33;8.77;;;6.45;;
65753;SDS011;69207;47.502;18.940;2023-08-20T04:40:36;9.60;;;7.00;;
65753;SDS011;69207;47.502;18.940;2023-08-20T04:41:40;7.82;;;6.53;;
65753;SDS011;69207;47.502;18.940;2023-08-20T04:42:43;9.50;;;6.40;;
65753;SDS011;69207;47.502;18.940;2023-08-20T04:43:46;11.35;;;6.50;;
65753;SDS011;69207;47.502;18.940;2023-08-20T04:44:49;8.63;;;6.72;;
65753;SDS011;69207;47.502;18.940;2023-08-20T04:45:52;9.13;;;6.75;;
65753;SDS011;69207;47.502;18.940;2023-08-20T04:46:55;10.88;;;7.07;;
65753;SDS011;69207;47.502;18.940;2023-08-20T04:47:59;8.27;;;6.75;;
65753;SDS011;69207;47.502;18.940;2023-08-20T04:49:02;11.05;;;7.10;;
65753;SDS011;69207;47.502;18.940;2023-08-20T04:50:05;9.50;;;7.25;;
65753;SDS011;69207;47.502;18.940;2023-08-20T04:51:09;9.20;;;7.15;;
65753;SDS011;69207;47.502;18.940;2023-08-20T04:52:13;10.73;;;6.87;;
65753;SDS011;69207;47.502;18.940;2023-08-20T04:53:16;11.05;;;7.70;;
65753;SDS011;69207;47.502;18.940;2023-08-20T04:54:19;9.13;;;7.22;;
65753;SDS011;69207;47.502;18.940;2023-08-20T04:55:22;8.45;;;6.65;;
65753;SDS011;69207;47.502;18.940;2023-08-20T04:56:25;7.62;;;6.82;;
65753;SDS011;69207;47.502;18.940;2023-08-20T04:57:28;9.75;;;6.85;;
65753;SDS011;69207;47.502;18.940;2023-08-20T04:58:31;10.68;;;7.28;;
65753;SDS011;69207;47.502;18.940;2023-08-20T04:59:34;10.18;;;6.80;;
65753;SDS011;69207;47.502;18.940;2023-08-20T05:00:37;11.60;;;7.12;;
65753;SDS011;69207;47.502;18.940;2023-08-20T05:01:40;11.95;;;7.22;;
65753;SDS011;69207;47.502;18.940;2023-08-20T05:02:43;10.65;;;6.65;;
65753;SDS011;69207;47.502;18.940;2023-08-20T05:03:46;12.75;;;7.15;;
65753;SDS011;69207;47.502;18.940;2023-08-20T05:04:49;7.87;;;7.07;;
65753;SDS011;69207;47.502;18.940;2023-08-20T05:05:53;11.55;;;6.82;;
65753;SDS011;69207;47.502;18.940;2023-08-20T05:06:56;14.55;;;7.28;;
65753;SDS011;69207;47.502;18.940;2023-08-20T05:07:59;16.02;;;7.57;;
65753;SDS011;69207;47.502;18.940;2023-08-20T05:09:02;14.85;;;7.12;;
65753;SDS011;69207;47.502;18.940;2023-08-20T05:10:06;9.95;;;7.25;;
65753;SDS011;69207;47.502;18.940;2023-08-20T05:11:09;16.65;;;7.62;;
65753;SDS011;69207;47.502;18.940;2023-08-20T05:12:12;9.50;;;6.50;;
65753;SDS011;69207;47.502;18.940;2023-08-20T05:13:15;8.23;;;6.85;;
65753;SDS011;69207;47.502;18.940;2023-08-20T05:14:19;7.47;;;6.55;;
65753;SDS011;69207;47.502;18.940;2023-08-20T05:15:22;9.60;;;6.87;;
65753;SDS011;69207;47.502;18.940;2023-08-20T05:16:25;9.25;;;7.00;;
65753;SDS011;69207;47.502;18.940;2023-08-20T05:17:28;6.82;;;6.22;;
65753;SDS011;69207;47.502;18.940;2023-08-20T05:18:31;7.35;;;6.65;;
65753;SDS011;69207;47.502;18.940;2023-08-20T05:19:34;9.43;;;6.72;;
65753;SDS011;69207;47.502;18.940;2023-08-20T05:20:37;8.77;;;7.20;;
65753;SDS011;69207;47.502;18.940;2023-08-20T05:21:40;8.82;;;6.90;;
65753;SDS011;69207;47.502;18.940;2023-08-20T05:22:43;13.00;;;6.72;;
65753;SDS011;69207;47.502;18.940;2023-08-20T05:23:46;9.60;;;7.60;;
65753;SDS011;69207;47.502;18.940;2023-08-20T05:24:49;8.02;;;7.20;;
65753;SDS011;69207;47.502;18.940;2023-08-20T05:25:52;12.48;;;7.80;;
65753;SDS011;69207;47.502;18.940;2023-08-20T05:27:07;8.57;;;7.25;;
65753;SDS011;69207;47.502;18.940;2023-08-20T05:28:17;9.60;;;6.93;;
65753;SDS011;69207;47.502;18.940;2023-08-20T05:29:20;11.02;;;7.03;;
65753;SDS011;69207;47.502;18.940;2023-08-20T05:30:23;10.90;;;7.28;;
65753;SDS011;69207;47.502;18.940;2023-08-20T05:31:26;8.50;;;7.07;;
65753;SDS011;69207;47.502;18.940;2023-08-20T05:32:29;12.20;;;7.53;;
65753;SDS011;69207;47.502;18.940;2023-08-20T05:33:32;11.05;;;6.97;;
65753;SDS011;69207;47.502;18.940;2023-08-20T05:34:35;10.10;;;6.97;;
65753;SDS011;69207;47.502;18.940;2023-08-20T05:35:38;10.32;;;7.70;;
65753;SDS011;69207;47.502;18.940;2023-08-20T05:36:42;8.20;;;6.95;;
65753;SDS011;69207;47.502;18.940;2023-08-20T05:37:44;9.32;;;6.93;;
65753;SDS011;69207;47.502;18.940;2023-08-20T05:38:47;7.97;;;7.12;;
65753;SDS011;69207;47.502;18.940;2023-08-20T05:39:50;10.05;;;7.28;;
65753;SDS011;69207;47.502;18.940;2023-08-20T05:40:53;9.95;;;7.20;;
65753;SDS011;69207;47.502;18.940;2023-08-20T05:41:56;11.65;;;7.30;;
65753;SDS011;69207;47.502;18.940;2023-08-20T05:42:59;7.82;;;6.82;;
65753;SDS011;69207;47.502;18.940;2023-08-20T05:44:02;7.57;;;6.80;;
65753;SDS011;69207;47.502;18.940;2023-08-20T05:45:05;8.85;;;6.78;;
65753;SDS011;69207;47.502;18.940;2023-08-20T05:46:09;9.93;;;6.95;;
65753;SDS011;69207;47.502;18.940;2023-08-20T05:47:12;8.55;;;7.43;;
65753;SDS011;69207;47.502;18.940;2023-08-20T05:48:15;7.55;;;6.53;;
65753;SDS011;69207;47.502;18.940;2023-08-20T05:49:18;8.30;;;6.45;;
65753;SDS011;69207;47.502;18.940;2023-08-20T05:50:21;9.60;;;7.78;;
65753;SDS011;69207;47.502;18.940;2023-08-20T05:51:24;10.05;;;7.43;;
65753;SDS011;69207;47.502;18.940;2023-08-20T05:52:27;10.32;;;7.18;;
65753;SDS011;69207;47.502;18.940;2023-08-20T05:53:30;10.52;;;7.37;;
65753;SDS011;69207;47.502;18.940;2023-08-20T05:54:33;8.45;;;7.45;;
65753;SDS011;69207;47.502;18.940;2023-08-20T05:55:35;10.75;;;6.85;;
65753;SDS011;69207;47.502;18.940;2023-08-20T05:56:38;10.18;;;7.18;;
65753;SDS011;69207;47.502;18.940;2023-08-20T05:57:41;10.20;;;7.37;;
65753;SDS011;69207;47.502;18.940;2023-08-20T05:58:45;8.50;;;7.37;;
65753;SDS011;69207;47.502;18.940;2023-08-20T05:59:48;11.80;;;7.35;;
65753;SDS011;69207;47.502;18.940;2023-08-20T06:00:51;10.10;;;7.45;;
65753;SDS011;69207;47.502;18.940;2023-08-20T06:01:54;10.45;;;7.75;;
65753;SDS011;69207;47.502;18.940;2023-08-20T06:02:57;8.80;;;7.60;;
65753;SDS011;69207;47.502;18.940;2023-08-20T06:04:00;10.30;;;7.37;;
65753;SDS011;69207;47.502;18.940;2023-08-20T06:05:04;12.52;;;7.25;;
65753;SDS011;69207;47.502;18.940;2023-08-20T06:06:07;15.20;;;7.78;;
65753;SDS011;69207;47.502;18.940;2023-08-20T06:07:10;11.55;;;7.03;;
65753;SDS011;69207;47.502;18.940;2023-08-20T06:08:13;12.55;;;7.50;;
65753;SDS011;69207;47.502;18.940;2023-08-20T06:09:17;12.75;;;7.78;;
65753;SDS011;69207;47.502;18.940;2023-08-20T06:10:20;12.07;;;7.78;;
65753;SDS011;69207;47.502;18.940;2023-08-20T06:11:23;11.15;;;7.80;;
65753;SDS011;69207;47.502;18.940;2023-08-20T06:12:26;10.32;;;8.18;;
65753;SDS011;69207;47.502;18.940;2023-08-20T06:13:29;9.70;;;7.28;;
65753;SDS011;69207;47.502;18.940;2023-08-20T06:14:32;13.05;;;7.75;;
65753;SDS011;69207;47.502;18.940;2023-08-20T06:15:35;7.85;;;6.95;;
65753;SDS011;69207;47.502;18.940;2023-08-20T06:16:38;8.13;;;7.30;;
65753;SDS011;69207;47.502;18.940;2023-08-20T06:17:41;11.80;;;7.20;;
65753;SDS011;69207;47.502;18.940;2023-08-20T06:18:44;10.32;;;7.68;;